Time;durP1;ratioP1;P1;durP2;ratioP2;P2;SDS_P1;SDS_P2;PMS_P1;PMS_P2;Temp;Humidity;BMP_temperature;BMP_pressure;BME280_temperature;BME280_humidity;BME280_pressure;Samples;Min_cycle;Max_cycle;Signal;HPM_P1;HPM_P2
2021/03/17 00:00:34;;;;;;;8.32;5.55;;;4.80;79.50;;;;;;4994559;28;20041;-67
2021/03/17 00:03:00;;;;;;;8.48;6.00;;;4.90;79.40;;;;;;4979304;28;20075;-67
2021/03/17 00:05:31;;;;;;;10.07;6.63;;;4.90;79.30;;;;;;5009601;28;20029;-69
2021/03/17 00:07:57;;;;;;;10.03;7.10;;;4.90;79.40;;;;;;4990914;28;20031;-67
2021/03/17 00:10:25;;;;;;;8.10;5.88;;;4.90;79.20;;;;;;5006815;28;20046;-67
2021/03/17 00:12:51;;;;;;;8.85;6.30;;;4.90;79.20;;;;;;4984294;28;20045;-67
2021/03/17 00:15:24;;;;;;;10.38;6.50;;;4.80;79.20;;;;;;4987634;28;20035;-68
2021/03/17 00:17:50;;;;;;;11.90;6.85;;;4.80;79.30;;;;;;5006290;28;20462;-67
2021/03/17 00:20:17;;;;;;;8.93;6.47;;;4.80;79.40;;;;;;5003238;28;20067;-68
2021/03/17 00:22:43;;;;;;;8.55;6.45;;;4.80;79.60;;;;;;5004567;28;20031;-67
2021/03/17 00:25:09;;;;;;;7.78;6.20;;;4.80;79.70;;;;;;4994490;28;20041;-68
2021/03/17 00:27:35;;;;;;;7.90;5.95;;;4.90;79.60;;;;;;4994557;28;20073;-67
2021/03/17 00:30:01;;;;;;;10.73;7.43;;;4.90;79.50;;;;;;4994224;28;20049;-66
2021/03/17 00:32:28;;;;;;;10.43;6.90;;;4.90;79.50;;;;;;5004918;28;20022;-67
2021/03/17 00:34:53;;;;;;;11.38;7.05;;;4.90;79.60;;;;;;4990436;28;20657;-67
2021/03/17 00:37:19;;;;;;;8.77;6.65;;;4.90;79.30;;;;;;4995299;28;20061;-66
2021/03/17 00:39:45;;;;;;;10.63;7.35;;;4.90;79.50;;;;;;4993989;28;20022;-68
2021/03/17 00:42:11;;;;;;;9.60;7.00;;;4.90;79.60;;;;;;5003037;28;20027;-66
2021/03/17 00:44:37;;;;;;;10.82;7.70;;;4.90;79.60;;;;;;4994877;28;20026;-67
2021/03/17 00:47:02;;;;;;;11.50;8.02;;;4.90;79.60;;;;;;4992026;28;20054;-66
2021/03/17 00:49:29;;;;;;;12.52;7.57;;;4.90;79.60;;;;;;5004578;28;20438;-66
2021/03/17 00:51:54;;;;;;;11.85;7.22;;;4.90;79.60;;;;;;4975258;28;20492;-66
2021/03/17 00:54:20;;;;;;;12.55;8.00;;;4.90;79.50;;;;;;4982223;28;20045;-67
2021/03/17 00:56:46;;;;;;;12.70;8.40;;;4.80;79.50;;;;;;4988104;28;20034;-66
2021/03/17 00:59:12;;;;;;;13.15;8.57;;;4.80;79.70;;;;;;4988776;28;20798;-67
2021/03/17 01:01:37;;;;;;;12.30;7.78;;;4.80;79.80;;;;;;4993401;28;20196;-67
2021/03/17 01:04:03;;;;;;;12.45;6.97;;;4.90;79.80;;;;;;4982853;28;20049;-66
2021/03/17 01:06:28;;;;;;;11.43;7.60;;;4.80;79.50;;;;;;4999400;28;20526;-67
2021/03/17 01:08:54;;;;;;;12.38;8.15;;;4.80;79.60;;;;;;5002952;28;20065;-67
2021/03/17 01:11:20;;;;;;;13.15;8.27;;;4.80;80.00;;;;;;4988692;28;20050;-67
2021/03/17 01:13:46;;;;;;;12.05;7.85;;;4.70;79.90;;;;;;4978380;28;20065;-67
2021/03/17 01:16:12;;;;;;;10.27;7.22;;;4.80;79.80;;;;;;4983140;28;20596;-67
2021/03/17 01:18:37;;;;;;;11.10;7.47;;;4.70;79.80;;;;;;4997642;28;20026;-67
2021/03/17 01:21:04;;;;;;;12.60;8.75;;;4.70;80.00;;;;;;5002045;28;20026;-69
2021/03/17 01:23:30;;;;;;;17.23;10.18;;;4.80;80.10;;;;;;4991985;28;20037;-66
2021/03/17 01:25:55;;;;;;;15.90;9.55;;;4.70;80.00;;;;;;4990896;28;20026;-67
2021/03/17 01:28:21;;;;;;;15.15;10.02;;;4.80;80.10;;;;;;4999545;28;20034;-67
2021/03/17 01:30:50;;;;;;;19.30;9.93;;;4.70;80.20;;;;;;4989054;28;20076;-67
2021/03/17 01:33:17;;;;;;;15.80;10.43;;;4.80;80.30;;;;;;4998692;28;20088;-66
2021/03/17 01:35:44;;;;;;;20.77;10.75;;;4.80;80.30;;;;;;5010062;28;20030;-68
2021/03/17 01:38:10;;;;;;;15.18;9.38;;;4.80;80.10;;;;;;5015082;28;20080;-67
2021/03/17 01:40:39;;;;;;;17.02;10.77;;;4.80;80.20;;;;;;5008793;28;20029;-66
2021/03/17 01:43:05;;;;;;;18.35;11.65;;;4.80;80.40;;;;;;4992059;28;20064;-67
2021/03/17 01:45:31;;;;;;;17.60;10.93;;;4.80;80.50;;;;;;5004087;28;20123;-68
2021/03/17 01:47:57;;;;;;;18.73;11.30;;;4.80;80.30;;;;;;4975706;28;20119;-67
2021/03/17 01:50:32;;;;;;;16.95;11.13;;;4.80;80.50;;;;;;4976840;28;20547;-67
2021/03/17 01:53:10;;;;;;;17.80;11.30;;;4.80;80.60;;;;;;5012327;28;20366;-66
2021/03/17 01:55:37;;;;;;;22.20;11.45;;;4.80;80.60;;;;;;4976582;28;20487;-67
2021/03/17 01:58:04;;;;;;;17.58;10.93;;;4.80;80.60;;;;;;5006805;28;20022;-67
2021/03/17 02:00:30;;;;;;;15.35;9.93;;;4.80;80.60;;;;;;4989291;28;20019;-67
2021/03/17 02:02:57;;;;;;;20.35;12.05;;;4.90;80.50;;;;;;4992485;28;20029;-66
2021/03/17 02:05:35;;;;;;;17.73;11.52;;;4.90;80.40;;;;;;4977957;28;20383;-67
2021/03/17 02:08:07;;;;;;;19.60;11.27;;;4.90;80.60;;;;;;4992515;28;20057;-68
2021/03/17 02:10:34;;;;;;;20.17;11.82;;;4.90;80.50;;;;;;5005344;28;20034;-66
2021/03/17 02:13:24;;;;;;;20.42;12.90;;;4.90;80.40;;;;;;4986177;28;20552;-67
2021/03/17 02:16:17;;;;;;;19.90;11.75;;;4.90;80.50;;;;;;4985557;28;20134;-67
2021/03/17 02:18:55;;;;;;;;;;;4.80;80.70;;;;;;4977738;28;20026;-66
2021/03/17 02:22:01;;;;;;;21.70;12.32;;;4.90;80.40;;;;;;4996472;28;19910;-67
2021/03/17 02:24:49;;;;;;;20.40;11.13;;;4.90;80.50;;;;;;4961676;28;20061;-67
2021/03/17 02:27:45;;;;;;;18.42;11.55;;;4.90;80.60;;;;;;4988494;28;20037;-67
2021/03/17 02:30:17;;;;;;;20.85;12.00;;;4.90;80.70;;;;;;4988718;28;20034;-67
2021/03/17 02:32:51;;;;;;;20.15;12.65;;;4.90;80.70;;;;;;4995156;28;20030;-67
2021/03/17 02:35:23;;;;;;;20.27;11.93;;;4.90;80.70;;;;;;4999609;28;20487;-66
2021/03/17 02:37:50;;;;;;;23.00;13.02;;;4.90;81.10;;;;;;4997471;28;20034;-68
2021/03/17 02:40:33;;;;;;;23.45;13.73;;;5.00;80.70;;;;;;4994247;28;20670;-66
2021/03/17 02:43:03;;;;;;;;;;;5.00;80.60;;;;;;4987753;28;20100;-67
2021/03/17 02:45:31;;;;;;;20.77;12.75;;;5.00;80.30;;;;;;4990276;28;19919;-68
2021/03/17 02:48:26;;;;;;;24.45;14.32;;;5.00;80.50;;;;;;4977636;28;20056;-66
2021/03/17 02:50:55;;;;;;;22.13;13.48;;;4.90;80.60;;;;;;5000606;28;20088;-67
2021/03/17 02:53:26;;;;;;;24.42;14.25;;;5.00;80.80;;;;;;4989740;28;20026;-66
2021/03/17 02:56:12;;;;;;;21.98;13.23;;;4.90;80.80;;;;;;4990743;28;20031;-67
2021/03/17 02:58:42;;;;;;;23.70;13.35;;;5.00;80.80;;;;;;4991604;28;20046;-66
2021/03/17 03:01:11;;;;;;;26.17;14.77;;;4.90;80.60;;;;;;4995647;28;20023;-67
2021/03/17 03:03:39;;;;;;;25.55;14.52;;;5.00;80.70;;;;;;4990389;28;20124;-67
2021/03/17 03:06:06;;;;;;;22.17;13.60;;;5.00;80.80;;;;;;5005315;28;20412;-67
2021/03/17 03:08:34;;;;;;;25.83;14.30;;;5.00;80.70;;;;;;4982000;28;20026;-67
2021/03/17 03:11:01;;;;;;;28.17;15.35;;;5.00;80.80;;;;;;4978756;28;20142;-67
2021/03/17 03:13:28;;;;;;;25.67;14.48;;;5.00;80.80;;;;;;4986450;28;20425;-68
2021/03/17 03:15:56;;;;;;;22.63;14.00;;;5.00;80.60;;;;;;5007690;28;20033;-68
2021/03/17 03:18:26;;;;;;;24.00;14.95;;;4.90;80.70;;;;;;4988397;28;20062;-68
2021/03/17 03:20:54;;;;;;;24.20;14.48;;;4.90;80.80;;;;;;4988188;28;20027;-67
2021/03/17 03:23:22;;;;;;;25.02;15.32;;;4.90;80.80;;;;;;4991676;28;20050;-67
2021/03/17 03:25:50;;;;;;;25.58;14.10;;;4.90;80.80;;;;;;4989816;28;20432;-67
2021/03/17 03:28:18;;;;;;;26.38;14.57;;;4.90;80.80;;;;;;5000423;28;20039;-66
2021/03/17 03:30:57;;;;;;;26.20;14.43;;;4.90;80.90;;;;;;5031039;23;20044;-88
2021/03/17 03:33:32;;;;;;;24.88;14.43;;;4.90;81.00;;;;;;5013391;28;20022;-89
2021/03/17 03:35:58;;;;;;;25.60;15.45;;;4.90;81.00;;;;;;5004068;28;20030;-88
2021/03/17 03:38:29;;;;;;;27.42;15.15;;;5.00;81.00;;;;;;5014083;28;20109;-88
2021/03/17 03:41:10;;;;;;;22.58;13.65;;;5.00;80.90;;;;;;5012777;28;20046;-87
2021/03/17 03:43:39;;;;;;;27.90;14.98;;;5.00;80.90;;;;;;5012945;28;20026;-88
2021/03/17 03:46:11;;;;;;;25.10;15.48;;;5.00;80.90;;;;;;5011804;28;20053;-88
2021/03/17 03:48:40;;;;;;;31.95;16.10;;;5.00;81.00;;;;;;5013706;28;20116;-87
2021/03/17 03:51:14;;;;;;;26.92;15.07;;;4.90;80.90;;;;;;5013154;28;20115;-88
2021/03/17 03:53:59;;;;;;;26.42;15.00;;;4.90;81.10;;;;;;5012323;28;20045;-88
2021/03/17 03:56:45;;;;;;;29.42;15.15;;;5.00;81.20;;;;;;5012756;28;20025;-88
2021/03/17 03:59:43;;;;;;;26.40;15.35;;;5.00;81.10;;;;;;5012589;28;20518;-88
2021/03/17 04:02:22;;;;;;;26.80;15.18;;;5.00;80.90;;;;;;5015245;28;20042;-88
2021/03/17 04:08:22;;;;;;;28.10;15.52;;;4.90;80.80;;;;;;5013087;28;20046;-88
2021/03/17 04:10:56;;;;;;;29.83;16.05;;;4.90;80.90;;;;;;5017300;28;20029;-88
2021/03/17 04:13:26;;;;;;;25.83;14.95;;;4.80;80.90;;;;;;5016903;28;20026;-88
2021/03/17 04:16:03;;;;;;;30.15;16.35;;;4.80;81.00;;;;;;5017592;28;20045;-88
2021/03/17 04:18:46;;;;;;;29.63;16.10;;;4.80;81.20;;;;;;5016726;28;20034;-88
2021/03/17 04:21:25;;;;;;;31.08;16.10;;;4.80;81.20;;;;;;5017274;28;20417;-88
2021/03/17 04:24:19;;;;;;;26.25;15.85;;;4.80;81.10;;;;;;5015113;28;20029;-88
2021/03/17 04:26:52;;;;;;;32.25;16.13;;;4.80;81.10;;;;;;5009883;28;20065;-88
2021/03/17 04:29:25;;;;;;;27.70;15.95;;;4.90;81.10;;;;;;5016116;28;20030;-88
2021/03/17 04:32:03;;;;;;;25.63;15.98;;;4.80;81.00;;;;;;5025859;28;20040;-88
2021/03/17 04:34:48;;;;;;;25.80;14.73;;;4.80;81.00;;;;;;5021667;28;20026;-88
2021/03/17 04:37:21;;;;;;;26.00;15.32;;;4.80;81.00;;;;;;5014831;28;20065;-88
2021/03/17 04:40:01;;;;;;;;;;;;;;;;;;;;;
2021/03/17 04:42:36;;;;;;;32.58;15.98;;;4.80;81.10;;;;;;5016844;28;20113;-87
2021/03/17 04:45:03;;;;;;;31.58;16.42;;;4.80;81.00;;;;;;5014758;28;20034;-88
2021/03/17 04:47:52;;;;;;;29.83;15.80;;;4.80;81.00;;;;;;5014729;28;20112;-88
2021/03/17 04:50:26;;;;;;;28.95;16.40;;;4.80;81.10;;;;;;5016393;28;20034;-88
2021/03/17 04:52:55;;;;;;;36.28;17.55;;;4.80;81.10;;;;;;5017012;28;20033;-88
2021/03/17 04:55:33;;;;;;;32.95;17.73;;;4.80;81.10;;;;;;5015191;28;20030;-89
2021/03/17 04:58:01;;;;;;;36.03;16.85;;;4.80;81.10;;;;;;5015284;28;20426;-88
2021/03/17 05:00:38;;;;;;;31.20;16.48;;;4.80;81.10;;;;;;5014027;28;20494;-88
2021/03/17 05:03:12;;;;;;;31.55;17.13;;;4.70;81.00;;;;;;5021563;28;20033;-89
2021/03/17 05:08:41;;;;;;;34.53;17.58;;;4.80;81.10;;;;;;4992445;28;20042;-88
2021/03/17 05:11:23;;;;;;;30.08;16.27;;;4.80;81.10;;;;;;5011622;28;20061;-89
2021/03/17 05:13:57;;;;;;;32.05;16.80;;;4.70;81.10;;;;;;4998002;28;20040;-88
2021/03/17 05:16:39;;;;;;;30.13;16.08;;;4.70;81.20;;;;;;5014809;28;20624;-89
2021/03/17 05:22:34;;;;;;;30.13;15.40;;;4.70;81.20;;;;;;5014507;28;20505;-89
2021/03/17 05:25:19;;;;;;;29.10;16.10;;;4.70;81.20;;;;;;5014799;28;20033;-89
2021/03/17 05:28:14;;;;;;;32.30;16.02;;;4.70;81.20;;;;;;5015311;28;20052;-89
2021/03/17 05:31:03;;;;;;;34.13;16.30;;;4.70;81.20;;;;;;5011363;28;20038;-88
2021/03/17 05:33:36;;;;;;;29.98;15.70;;;4.70;81.20;;;;;;5022336;28;20398;-88
2021/03/17 05:36:16;;;;;;;31.25;14.85;;;4.70;81.10;;;;;;5013033;28;20042;-88
2021/03/17 05:38:47;;;;;;;31.23;16.65;;;4.70;81.10;;;;;;5013813;28;20022;-89
2021/03/17 05:41:14;;;;;;;32.08;16.55;;;4.70;81.20;;;;;;5013998;28;20367;-89
2021/03/17 05:43:41;;;;;;;31.40;17.75;;;4.70;81.20;;;;;;5012391;28;20018;-88
2021/03/17 05:46:30;;;;;;;31.58;17.73;;;4.70;81.10;;;;;;5005060;28;20610;-90
2021/03/17 05:49:07;;;;;;;36.38;18.38;;;4.70;81.10;;;;;;4998411;28;20037;-88
2021/03/17 05:51:38;;;;;;;33.35;17.88;;;4.70;81.10;;;;;;5013168;28;20034;-88
2021/03/17 05:54:25;;;;;;;33.05;17.83;;;4.70;81.10;;;;;;5013140;28;20026;-88
2021/03/17 05:56:56;;;;;;;33.60;17.70;;;4.70;81.20;;;;;;5007332;28;20046;-88
2021/03/17 05:59:30;;;;;;;39.30;18.92;;;4.60;81.10;;;;;;5010973;28;20026;-89
2021/03/17 06:01:57;;;;;;;31.95;17.58;;;4.70;81.20;;;;;;5009501;28;20022;-88
2021/03/17 06:04:32;;;;;;;34.75;17.02;;;4.70;81.20;;;;;;5012025;28;20057;-89
2021/03/17 06:07:47;;;;;;;32.47;17.35;;;4.70;81.10;;;;;;5013994;28;20524;-89
2021/03/17 06:10:21;;;;;;;33.50;17.63;;;4.70;81.00;;;;;;5000382;28;20050;-89
2021/03/17 06:13:39;;;;;;;32.47;16.55;;;4.80;81.00;;;;;;5013270;28;20080;-87
2021/03/17 06:16:13;;;;;;;30.52;15.50;;;4.80;80.90;;;;;;5010558;28;20125;-88
2021/03/17 06:19:05;;;;;;;;;;;;;;;;;;;;;
2021/03/17 06:21:54;;;;;;;30.77;16.00;;;4.90;80.80;;;;;;5010253;28;20040;-88
2021/03/17 06:24:39;;;;;;;30.63;15.65;;;5.00;80.70;;;;;;5013253;28;20061;-89
2021/03/17 06:27:46;;;;;;;30.40;15.60;;;5.20;80.50;;;;;;5014670;28;20038;-88
2021/03/17 06:34:06;;;;;;;29.70;14.98;;;5.70;79.40;;;;;;4980960;28;20037;-87
2021/03/17 06:37:46;;;;;;;;;;;;;;;;;;;;;
2021/03/17 06:39:51;;;;;;;28.17;13.95;;;5.70;79.80;;;;;;5009767;28;20045;-90
2021/03/17 06:42:38;;;;;;;23.88;14.05;;;6.00;79.20;;;;;;5016131;28;20022;-89
2021/03/17 06:45:06;;;;;;;33.03;14.50;;;6.20;78.70;;;;;;5005191;28;20033;-88
2021/03/17 06:47:32;;;;;;;25.08;14.02;;;6.50;78.50;;;;;;5028911;28;20029;-87
2021/03/17 06:50:42;;;;;;;22.20;11.30;;;6.80;77.80;;;;;;5008819;28;20457;-87
2021/03/17 06:53:43;;;;;;;22.70;12.32;;;7.00;77.30;;;;;;4936723;29;20066;-88
2021/03/17 06:56:30;;;;;;;23.10;11.35;;;7.20;76.50;;;;;;5012080;28;20029;-87
2021/03/17 06:59:26;;;;;;;17.38;10.13;;;7.50;76.20;;;;;;4994646;28;20066;-88
2021/03/17 07:02:30;;;;;;;16.98;9.70;;;7.70;75.60;;;;;;5004375;28;20065;-89
2021/03/17 07:05:25;;;;;;;;;;;;;;;;;;;;;
2021/03/17 07:08:31;;;;;;;15.88;8.93;;;8.10;74.60;;;;;;5026915;28;20036;-87
2021/03/17 07:11:31;;;;;;;19.83;9.25;;;8.30;74.50;;;;;;5017769;28;20033;-87
2021/03/17 07:14:15;;;;;;;14.32;8.73;;;8.50;73.80;;;;;;5012249;28;20026;-86
2021/03/17 07:16:52;;;;;;;14.20;7.32;;;8.60;73.60;;;;;;5012501;28;20030;-87
2021/03/17 07:19:36;;;;;;;12.35;5.80;;;8.70;73.00;;;;;;5010530;28;20025;-87
2021/03/17 07:22:40;;;;;;;14.15;7.05;;;8.80;71.60;;;;;;5023407;28;20105;-87
2021/03/17 07:25:50;;;;;;;11.55;5.78;;;8.70;70.90;;;;;;4993268;28;20054;-88
2021/03/17 07:28:16;;;;;;;12.32;6.28;;;8.80;71.00;;;;;;5005771;28;20034;-87
2021/03/17 07:31:14;;;;;;;13.55;6.72;;;9.00;71.20;;;;;;5014679;28;20029;-88
2021/03/17 07:33:40;;;;;;;13.52;6.95;;;9.20;70.70;;;;;;5013902;28;20034;-86
2021/03/17 07:36:06;;;;;;;10.13;6.07;;;9.50;70.40;;;;;;5027866;28;20060;-87
2021/03/17 07:38:33;;;;;;;12.10;6.30;;;9.90;69.90;;;;;;5013027;28;20092;-87
2021/03/17 07:41:01;;;;;;;12.55;5.20;;;10.20;68.90;;;;;;5007287;28;20192;-87
2021/03/17 07:43:30;;;;;;;7.18;4.70;;;10.50;68.10;;;;;;5020696;28;20163;-87
2021/03/17 07:45:56;;;;;;;8.45;4.10;;;10.80;67.70;;;;;;5012661;28;20027;-87
2021/03/17 07:48:36;;;;;;;8.43;4.25;;;11.00;66.80;;;;;;5017008;28;20026;-87
2021/03/17 07:51:05;;;;;;;8.52;4.13;;;11.20;65.50;;;;;;5017655;28;20238;-87
2021/03/17 07:53:54;;;;;;;;;;;;;;;;;;;;;
2021/03/17 07:56:39;;;;;;;8.07;4.32;;;11.70;64.70;;;;;;5016175;28;20034;-87
2021/03/17 07:59:18;;;;;;;9.18;5.00;;;12.00;63.80;;;;;;5020459;28;20018;-85
2021/03/17 08:01:45;;;;;;;8.27;5.32;;;12.30;63.30;;;;;;5042721;28;20048;-86
2021/03/17 08:04:17;;;;;;;6.97;3.83;;;12.50;63.20;;;;;;5049372;28;20485;-85
2021/03/17 08:06:43;;;;;;;5.15;3.92;;;12.60;63.00;;;;;;5018017;28;20037;-86
2021/03/17 08:09:13;;;;;;;6.32;3.58;;;12.70;62.70;;;;;;5016984;28;20041;-87
2021/03/17 08:11:39;;;;;;;4.25;3.85;;;12.70;62.50;;;;;;5016774;28;20041;-86
2021/03/17 08:14:06;;;;;;;5.10;3.00;;;12.80;61.90;;;;;;4997370;28;20031;-87
2021/03/17 08:16:35;;;;;;;6.30;3.03;;;13.20;60.30;;;;;;4996805;28;20437;-86
2021/03/17 08:19:01;;;;;;;4.68;3.08;;;13.70;59.30;;;;;;5010213;28;20030;-86
2021/03/17 08:21:44;;;;;;;6.57;3.08;;;14.20;58.00;;;;;;4997180;28;20023;-87
2021/03/17 08:24:39;;;;;;;4.63;2.67;;;14.80;56.10;;;;;;5008377;28;20145;-87
2021/03/17 08:27:08;;;;;;;3.75;2.67;;;15.20;55.60;;;;;;5006112;28;20065;-86
2021/03/17 08:29:42;;;;;;;5.88;2.83;;;14.70;56.20;;;;;;5018338;28;20037;-86
2021/03/17 08:32:09;;;;;;;4.93;3.08;;;14.20;55.90;;;;;;5014335;28;20029;-87
2021/03/17 08:34:36;;;;;;;5.72;2.63;;;14.40;55.70;;;;;;5017580;28;20036;-87
2021/03/17 08:37:07;;;;;;;6.22;2.90;;;14.40;55.40;;;;;;5015564;28;20073;-86
2021/03/17 08:39:33;;;;;;;6.50;2.60;;;14.10;55.70;;;;;;5014308;28;20033;-86
2021/03/17 08:42:06;;;;;;;4.82;2.47;;;13.70;56.10;;;;;;5006154;28;20696;-86
2021/03/17 08:44:45;;;;;;;5.80;2.65;;;13.10;56.80;;;;;;5007521;28;20018;-87
2021/03/17 08:47:42;;;;;;;4.40;2.22;;;12.60;57.20;;;;;;5005277;28;20031;-86
2021/03/17 08:50:23;;;;;;;4.22;2.47;;;12.10;57.70;;;;;;4997667;28;20451;-87
2021/03/17 08:52:50;;;;;;;4.03;2.10;;;11.70;58.40;;;;;;5000841;28;20038;-86
2021/03/17 08:55:21;;;;;;;3.72;1.90;;;11.30;58.60;;;;;;5014087;28;20079;-86
2021/03/17 08:57:59;;;;;;;3.72;2.30;;;11.10;58.90;;;;;;5018094;28;20133;-87
2021/03/17 09:00:50;;;;;;;5.78;2.42;;;11.00;58.30;;;;;;5021842;28;20029;-87
2021/03/17 09:03:31;;;;;;;3.70;1.48;;;11.00;58.50;;;;;;5011325;28;20072;-86
2021/03/17 09:06:20;;;;;;;2.85;1.70;;;11.00;58.00;;;;;;5011945;28;20494;-86
2021/03/17 09:09:08;;;;;;;3.47;1.75;;;11.00;58.30;;;;;;5015942;28;20072;-86
2021/03/17 09:11:37;;;;;;;3.28;1.83;;;10.90;57.70;;;;;;5026787;28;20014;-86
2021/03/17 09:14:05;;;;;;;3.25;1.90;;;10.70;58.20;;;;;;5033541;28;20025;-85
2021/03/17 09:16:33;;;;;;;3.83;1.50;;;10.50;58.30;;;;;;5034251;28;20057;-86
2021/03/17 09:19:10;;;;;;;3.22;1.63;;;10.30;58.40;;;;;;5035553;28;20005;-86
2021/03/17 09:21:38;;;;;;;4.22;1.50;;;10.20;58.30;;;;;;5011555;28;20093;-86
2021/03/17 09:24:31;;;;;;;22.88;12.60;;;9.90;58.50;;;;;;4994576;28;20030;-86
2021/03/17 09:27:04;;;;;;;4.80;2.33;;;9.80;59.50;;;;;;5008779;28;20049;-85
2021/03/17 09:29:30;;;;;;;4.75;1.90;;;9.80;59.50;;;;;;5014400;28;20350;-86
2021/03/17 09:31:56;;;;;;;5.70;2.03;;;9.70;59.50;;;;;;5013921;28;20033;-85
2021/03/17 09:34:29;;;;;;;3.50;1.83;;;9.70;59.40;;;;;;5014560;28;20025;-85
2021/03/17 09:37:15;;;;;;;2.78;1.80;;;9.60;59.10;;;;;;5015406;28;20037;-85
2021/03/17 09:39:48;;;;;;;2.80;2.10;;;9.60;58.90;;;;;;5013480;28;20044;-85
2021/03/17 09:42:18;;;;;;;4.05;1.88;;;9.60;59.00;;;;;;5017520;28;20026;-86
2021/03/17 09:44:44;;;;;;;2.92;1.98;;;9.40;58.50;;;;;;5022335;28;20045;-86
2021/03/17 09:47:10;;;;;;;6.05;1.80;;;9.30;58.60;;;;;;5009688;28;20037;-85
2021/03/17 09:49:36;;;;;;;3.70;1.73;;;9.20;58.70;;;;;;5016291;28;20393;-85
2021/03/17 09:52:03;;;;;;;4.95;1.50;;;9.20;59.00;;;;;;5025612;28;20034;-86
2021/03/17 09:54:32;;;;;;;5.28;1.42;;;9.20;58.60;;;;;;5014673;28;20053;-86
2021/03/17 09:57:03;;;;;;;3.08;1.27;;;9.10;58.20;;;;;;5002715;28;20057;-86
2021/03/17 09:59:34;;;;;;;2.55;1.20;;;9.00;58.50;;;;;;5014123;28;20116;-85
2021/03/17 10:02:09;;;;;;;1.73;1.30;;;9.00;58.70;;;;;;5013283;28;20441;-84
2021/03/17 10:04:42;;;;;;;2.33;1.20;;;9.00;58.70;;;;;;5014861;28;20025;-85
2021/03/17 10:07:13;;;;;;;2.65;1.23;;;9.00;58.50;;;;;;5009281;28;20230;-85
2021/03/17 10:09:40;;;;;;;12.45;7.03;;;9.00;58.50;;;;;;5012693;28;20397;-85
2021/03/17 10:12:21;;;;;;;2.58;2.08;;;9.00;58.50;;;;;;5027415;28;20033;-85
2021/03/17 10:14:52;;;;;;;5.45;1.60;;;9.10;58.70;;;;;;4995690;28;20045;-85
2021/03/17 10:17:19;;;;;;;4.57;1.55;;;9.10;58.60;;;;;;4995250;28;20034;-85
2021/03/17 10:19:52;;;;;;;2.35;1.40;;;9.10;58.70;;;;;;5007270;28;20022;-85
2021/03/17 10:22:18;;;;;;;2.13;1.42;;;9.10;58.30;;;;;;5033324;28;20033;-85
2021/03/17 10:24:50;;;;;;;3.28;1.83;;;9.10;58.60;;;;;;5022036;28;20029;-85
2021/03/17 10:27:19;;;;;;;2.50;1.50;;;9.20;57.80;;;;;;5013430;28;20033;-86
2021/03/17 10:29:47;;;;;;;2.58;1.42;;;9.10;56.40;;;;;;5005077;28;20413;-85
2021/03/17 10:32:21;;;;;;;5.90;1.90;;;9.10;56.00;;;;;;5056048;23;20037;-66
2021/03/17 10:34:48;;;;;;;2.10;1.83;;;9.00;56.70;;;;;;5024368;28;20032;-67
2021/03/17 10:37:15;;;;;;;2.83;1.58;;;9.10;57.30;;;;;;5026439;28;20025;-67
2021/03/17 10:39:42;;;;;;;1.50;1.40;;;9.20;57.50;;;;;;5031322;28;20032;-66
2021/03/17 10:42:23;;;;;;;2.47;1.50;;;9.30;57.60;;;;;;5044689;28;20412;-66
2021/03/17 10:45:14;;;;;;;4.93;1.23;;;9.30;57.20;;;;;;5023271;28;20063;-67
2021/03/17 10:47:42;;;;;;;2.38;1.15;;;9.30;57.50;;;;;;5026785;28;20507;-67
2021/03/17 10:50:14;;;;;;;2.90;1.38;;;9.30;57.30;;;;;;5027011;28;20032;-67
2021/03/17 10:52:42;;;;;;;;;;;9.40;57.40;;;;;;5034534;28;20052;-67
2021/03/17 10:55:19;;;;;;;3.00;1.58;;;9.40;58.50;;;;;;5034506;28;19920;-67
2021/03/17 10:57:47;;;;;;;2.97;1.50;;;9.50;58.40;;;;;;5032369;28;20026;-67
2021/03/17 11:00:25;;;;;;;1.70;1.20;;;9.40;57.80;;;;;;5019921;28;20497;-67
2021/03/17 11:02:52;;;;;;;2.78;1.35;;;9.40;57.50;;;;;;5032555;28;20039;-67
2021/03/17 11:05:17;;;;;;;2.85;1.60;;;9.50;57.70;;;;;;5026194;28;20048;-67
2021/03/17 11:07:58;;;;;;;3.25;1.60;;;9.60;57.60;;;;;;5034983;28;20033;-67
2021/03/17 11:10:46;;;;;;;2.72;1.45;;;9.60;57.70;;;;;;5033375;28;20481;-67
2021/03/17 11:13:12;;;;;;;3.58;1.40;;;9.60;57.40;;;;;;5026089;28;20030;-67
2021/03/17 11:15:45;;;;;;;2.88;1.75;;;9.60;57.40;;;;;;5014467;28;20055;-66
2021/03/17 11:18:25;;;;;;;2.40;1.52;;;9.50;57.40;;;;;;5017091;28;20048;-67
2021/03/17 11:20:53;;;;;;;142.30;80.22;;;9.40;57.70;;;;;;5023170;28;20037;-67
2021/03/17 11:23:21;;;;;;;6.47;4.45;;;9.40;57.80;;;;;;5016111;28;20022;-67
2021/03/17 11:25:47;;;;;;;4.88;2.35;;;9.30;57.80;;;;;;5015677;28;20026;-66
2021/03/17 11:28:19;;;;;;;6.05;2.42;;;9.20;57.50;;;;;;5016149;28;20025;-66
2021/03/17 11:30:48;;;;;;;7.00;2.00;;;9.00;57.60;;;;;;5016393;28;20031;-67
2021/03/17 11:33:15;;;;;;;3.97;1.40;;;9.10;58.30;;;;;;5045077;28;20128;-66
2021/03/17 11:35:42;;;;;;;4.40;1.40;;;9.30;58.40;;;;;;5023093;28;20504;-67
2021/03/17 11:38:08;;;;;;;3.13;1.30;;;9.40;57.80;;;;;;5027373;28;20037;-67
2021/03/17 11:40:34;;;;;;;2.90;1.20;;;9.60;57.90;;;;;;5027681;28;20060;-67
2021/03/17 11:43:13;;;;;;;2.53;1.65;;;9.70;57.60;;;;;;5027903;28;20029;-67
2021/03/17 11:45:40;;;;;;;4.25;2.50;;;9.80;57.50;;;;;;5018550;28;20053;-67
2021/03/17 11:48:07;;;;;;;4.65;2.08;;;9.90;57.50;;;;;;5032400;28;20083;-67
2021/03/17 11:50:34;;;;;;;1.70;1.60;;;10.10;58.20;;;;;;5017193;28;20433;-67
2021/03/17 11:53:01;;;;;;;2.25;1.27;;;10.50;58.70;;;;;;5015785;28;20033;-67
2021/03/17 11:55:27;;;;;;;4.80;1.70;;;10.70;57.30;;;;;;5029779;28;20026;-67
2021/03/17 11:57:53;;;;;;;3.33;1.40;;;10.70;57.40;;;;;;5032639;28;20022;-68
2021/03/17 12:00:19;;;;;;;3.42;1.40;;;10.70;57.00;;;;;;5032266;28;20151;-67
2021/03/17 12:02:45;;;;;;;4.10;1.50;;;10.70;57.30;;;;;;5034679;28;20124;-67
2021/03/17 12:05:12;;;;;;;1.73;1.17;;;10.80;57.40;;;;;;5029303;28;20076;-67
2021/03/17 12:07:37;;;;;;;2.35;1.60;;;10.70;57.20;;;;;;5016078;28;20033;-67
2021/03/17 12:10:05;;;;;;;3.58;1.67;;;10.70;57.40;;;;;;5015950;28;20112;-67
2021/03/17 12:12:32;;;;;;;4.20;1.73;;;10.70;57.30;;;;;;5034228;28;20505;-67
2021/03/17 12:14:57;;;;;;;5.32;1.42;;;10.70;56.80;;;;;;5034721;28;20040;-67
2021/03/17 12:17:23;;;;;;;1.42;1.30;;;10.80;56.30;;;;;;5035108;28;20025;-67
2021/03/17 12:19:49;;;;;;;1.60;1.30;;;10.70;56.40;;;;;;5034849;28;20036;-67
2021/03/17 12:22:14;;;;;;;4.88;1.40;;;10.70;56.40;;;;;;5035057;28;20025;-67
2021/03/17 12:24:40;;;;;;;2.03;1.15;;;10.80;56.30;;;;;;5034862;28;20074;-67
2021/03/17 12:27:06;;;;;;;1.92;1.23;;;10.80;55.50;;;;;;5035468;28;20033;-67
2021/03/17 12:29:32;;;;;;;1.40;1.30;;;10.60;55.50;;;;;;5036434;28;20029;-67
2021/03/17 12:31:58;;;;;;;1.83;1.10;;;10.40;54.60;;;;;;5036864;28;20071;-67
2021/03/17 12:34:23;;;;;;;1.58;1.20;;;10.10;55.20;;;;;;5025542;28;20205;-67
2021/03/17 12:36:49;;;;;;;2.88;1.10;;;9.90;56.20;;;;;;5035465;28;20059;-67
2021/03/17 12:39:15;;;;;;;1.20;1.00;;;9.90;56.70;;;;;;5036630;28;20021;-67
2021/03/17 12:41:42;;;;;;;2.45;1.25;;;9.90;57.00;;;;;;5034308;28;20385;-66
2021/03/17 12:44:08;;;;;;;1.90;1.10;;;9.90;56.90;;;;;;5025089;28;20029;-68
2021/03/17 12:46:35;;;;;;;2.65;1.30;;;9.90;56.90;;;;;;5050809;28;20044;-65
2021/03/17 12:49:01;;;;;;;2.13;1.25;;;9.70;56.80;;;;;;5016437;28;20421;-66
2021/03/17 12:51:27;;;;;;;3.25;1.33;;;9.70;57.20;;;;;;5020519;28;20086;-67
2021/03/17 12:53:53;;;;;;;1.90;1.33;;;9.60;57.60;;;;;;5019564;28;20620;-66
2021/03/17 12:56:18;;;;;;;1.73;1.00;;;9.50;57.70;;;;;;5027990;28;20068;-66
2021/03/17 12:58:44;;;;;;;2.33;1.15;;;9.40;57.80;;;;;;5017964;28;20466;-66
2021/03/17 13:01:09;;;;;;;1.65;1.05;;;9.30;57.80;;;;;;5016411;28;20029;-65
2021/03/17 13:03:35;;;;;;;3.83;1.10;;;9.10;58.00;;;;;;5050524;28;20036;-65
2021/03/17 13:06:01;;;;;;;3.08;1.20;;;8.90;58.60;;;;;;5027529;28;20079;-65
2021/03/17 13:08:28;;;;;;;2.13;1.35;;;8.80;58.90;;;;;;5027247;28;20041;-65
2021/03/17 13:10:54;;;;;;;3.13;1.10;;;8.60;59.20;;;;;;5027017;28;20026;-65
2021/03/17 13:13:23;;;;;;;2.22;1.33;;;8.50;59.60;;;;;;5023767;28;20025;-62
2021/03/17 13:15:49;;;;;;;1.42;1.00;;;8.30;59.90;;;;;;5035602;28;20028;-65
2021/03/17 13:18:15;;;;;;;1.88;1.38;;;8.20;60.20;;;;;;5023960;28;20479;-65
2021/03/17 13:20:43;;;;;;;1.60;1.17;;;8.10;60.60;;;;;;5031403;28;20033;-65
2021/03/17 13:23:09;;;;;;;2.55;1.30;;;7.90;60.70;;;;;;5026359;28;20025;-65
2021/03/17 13:25:35;;;;;;;3.50;1.20;;;7.80;60.90;;;;;;5020254;28;20021;-65
2021/03/17 13:28:00;;;;;;;2.70;1.20;;;7.70;61.40;;;;;;5028942;28;20024;-65
2021/03/17 13:30:26;;;;;;;3.45;1.45;;;7.50;61.60;;;;;;5035477;28;20436;-64
2021/03/17 13:32:52;;;;;;;5.22;1.52;;;7.40;61.90;;;;;;5025284;28;20032;-64
2021/03/17 13:35:18;;;;;;;1.90;1.38;;;7.30;62.20;;;;;;5028708;28;20025;-64
2021/03/17 13:37:44;;;;;;;2.00;1.13;;;7.20;62.40;;;;;;5029871;28;20029;-64